Time;durP1;ratioP1;P1;durP2;ratioP2;P2;SDS_P1;SDS_P2;PMS_P1;PMS_P2;Temp;Humidity;BMP_temperature;BMP_pressure;BME280_temperature;BME280_humidity;BME280_pressure;Samples;Min_cycle;Max_cycle;Signal;HPM_P1;HPM_P2
2023/09/08 00:01:32;;;;;;;6.88;4.05;;;;;;;15.02;100.00;99004.34;4925601;29;20488;-78
2023/09/08 00:03:58;;;;;;;7.63;4.35;;;;;;;14.93;100.00;98989.34;4940751;29;20066;-78
2023/09/08 00:06:23;;;;;;;6.90;4.30;;;;;;;14.97;100.00;98988.69;4922188;29;20054;-77
2023/09/08 00:08:48;;;;;;;8.07;4.05;;;;;;;14.67;100.00;98958.63;4938962;29;20040;-79
2023/09/08 00:11:13;;;;;;;10.82;4.35;;;;;;;14.63;100.00;98990.94;4922432;29;20028;-79
2023/09/08 00:13:39;;;;;;;6.80;3.95;;;;;;;14.52;100.00;98958.97;4919192;29;20103;-79
2023/09/08 00:16:06;;;;;;;6.03;3.85;;;;;;;14.53;100.00;98957.13;4919922;29;20035;-78
2023/09/08 00:18:32;;;;;;;8.90;4.13;;;;;;;14.71;100.00;98997.97;4921213;29;20031;-78
2023/09/08 00:20:58;;;;;;;6.82;4.05;;;;;;;14.50;100.00;98988.31;4920084;29;20135;-78
2023/09/08 00:23:23;;;;;;;9.18;4.28;;;;;;;14.57;100.00;98996.47;4937105;29;20038;-78
2023/09/08 00:25:49;;;;;;;7.25;4.53;;;;;;;14.49;100.00;98975.75;4917750;29;20079;-79
2023/09/08 00:28:14;;;;;;;8.30;4.45;;;;;;;14.47;100.00;98986.03;4931707;29;20036;-79
2023/09/08 00:30:39;;;;;;;8.23;4.88;;;;;;;14.54;100.00;98996.88;4938274;29;20055;-79
2023/09/08 00:33:08;;;;;;;8.93;4.57;;;;;;;14.22;100.00;98967.00;4919644;29;20032;-78
2023/09/08 00:35:33;;;;;;;7.03;4.82;;;;;;;14.21;100.00;98974.34;4935805;29;20032;-78
2023/09/08 00:37:59;;;;;;;5.75;4.15;;;;;;;14.25;100.00;98991.91;4919180;29;20111;-78
2023/09/08 00:40:24;;;;;;;7.85;4.55;;;;;;;14.15;100.00;98975.22;4939658;29;20050;-78
2023/09/08 00:42:49;;;;;;;7.00;4.47;;;;;;;14.10;100.00;98974.25;4919688;29;20034;-78
2023/09/08 00:45:14;;;;;;;8.07;4.45;;;;;;;14.15;100.00;98996.19;4918580;29;20527;-78
2023/09/08 00:47:40;;;;;;;7.72;4.93;;;;;;;14.06;100.00;98968.38;4918486;29;20023;-79
2023/09/08 00:50:06;;;;;;;6.80;4.45;;;;;;;14.19;100.00;98995.47;4919342;29;20086;-79
2023/09/08 00:52:33;;;;;;;7.57;4.70;;;;;;;14.28;100.00;98987.91;4920044;29;20372;-79
2023/09/08 00:54:59;;;;;;;6.40;4.18;;;;;;;14.45;100.00;99002.59;4919584;29;20495;-78
2023/09/08 00:57:25;;;;;;;9.15;4.38;;;;;;;14.36;100.00;99000.41;4931304;29;20237;-79
2023/09/08 00:59:50;;;;;;;7.38;4.60;;;;;;;14.25;100.00;98994.63;4941019;29;20037;-78
2023/09/08 01:02:16;;;;;;;9.60;4.90;;;;;;;14.24;100.00;98998.38;4918167;29;20483;-78
2023/09/08 01:04:41;;;;;;;8.63;4.50;;;;;;;14.05;100.00;98979.50;4936130;29;20035;-78
2023/09/08 01:07:08;;;;;;;8.93;4.43;;;;;;;14.05;100.00;98976.78;4917440;29;20020;-78
2023/09/08 01:09:34;;;;;;;7.47;4.40;;;;;;;14.24;100.00;99019.31;4937667;29;20036;-79
2023/09/08 01:12:04;;;;;;;8.05;5.22;;;;;;;14.14;100.00;99006.19;4917357;29;20496;-78
2023/09/08 01:14:29;;;;;;;11.05;4.68;;;;;;;14.19;100.00;99008.25;4920895;29;20407;-78
2023/09/08 01:16:54;;;;;;;5.80;3.95;;;;;;;14.05;100.00;98988.50;4922460;29;20024;-79
2023/09/08 01:19:21;;;;;;;6.90;4.43;;;;;;;14.05;100.00;99004.81;4925811;29;20153;-78
2023/09/08 01:21:59;;;;;;;5.38;3.90;;;;;;;14.11;100.00;99017.53;4922670;29;20039;-78
2023/09/08 01:24:58;;;;;;;9.05;4.80;;;;;;;14.01;100.00;99022.63;4932040;29;20404;-78
2023/09/08 01:27:25;;;;;;;10.75;5.30;;;;;;;13.85;100.00;99006.84;4939606;28;20032;-78
2023/09/08 01:29:53;;;;;;;9.48;4.53;;;;;;;13.82;100.00;99016.28;4919370;29;20052;-78
2023/09/08 01:32:18;;;;;;;9.65;5.13;;;;;;;13.78;100.00;99021.34;4911646;29;20031;-77
2023/09/08 01:34:44;;;;;;;8.98;5.07;;;;;;;13.53;100.00;98980.47;4918390;29;20031;-78
2023/09/08 01:37:09;;;;;;;8.50;5.00;;;;;;;13.62;100.00;98999.25;4912435;29;20370;-79
2023/09/08 01:39:35;;;;;;;10.85;5.40;;;;;;;13.58;100.00;98994.25;4914704;29;20031;-79
2023/09/08 01:42:01;;;;;;;7.63;5.32;;;;;;;13.61;100.00;99014.72;4917242;29;20504;-77
2023/09/08 01:44:26;;;;;;;9.65;4.97;;;;;;;13.56;100.00;99009.13;4937930;29;20041;-77
2023/09/08 01:46:56;;;;;;;9.95;5.38;;;;;;;13.62;100.00;99013.66;4915849;29;20023;-78
2023/09/08 01:49:22;;;;;;;13.00;5.90;;;;;;;13.61;100.00;98995.69;4918003;29;20028;-78
2023/09/08 01:51:47;;;;;;;8.50;5.38;;;;;;;13.60;100.00;98988.59;4915868;29;20515;-78
2023/09/08 01:54:12;;;;;;;9.82;5.72;;;;;;;13.65;100.00;98994.22;4927177;29;20036;-78
2023/09/08 01:56:37;;;;;;;12.88;5.50;;;;;;;13.59;100.00;98981.47;4938369;29;20102;-78
2023/09/08 01:59:04;;;;;;;8.43;5.32;;;;;;;13.66;100.00;98995.88;4920468;29;20023;-78
2023/09/08 02:01:29;;;;;;;10.73;5.75;;;;;;;13.63;100.00;98992.78;4917821;29;20040;-78
2023/09/08 02:03:54;;;;;;;8.35;5.63;;;;;;;13.66;100.00;99009.47;4924008;29;20031;-78
2023/09/08 02:06:19;;;;;;;12.57;5.70;;;;;;;13.54;100.00;98997.63;4907902;29;20066;-78
2023/09/08 02:08:45;;;;;;;6.95;4.80;;;;;;;13.44;100.00;98983.66;4915519;29;20484;-78
2023/09/08 02:11:10;;;;;;;8.93;4.53;;;;;;;13.30;100.00;98969.31;4918152;29;20020;-78
2023/09/08 02:13:36;;;;;;;7.95;4.68;;;;;;;13.33;100.00;98991.44;4926937;29;20499;-78
2023/09/08 02:16:01;;;;;;;6.22;4.30;;;;;;;13.33;100.00;99001.50;4930370;29;20032;-78
2023/09/08 02:18:28;;;;;;;7.85;4.50;;;;;;;13.16;100.00;98982.94;4921227;29;20397;-78
2023/09/08 02:20:53;;;;;;;7.07;4.45;;;;;;;13.11;100.00;98998.22;4916868;29;20024;-78
2023/09/08 02:23:18;;;;;;;7.72;5.10;;;;;;;13.09;100.00;99024.75;4920192;29;20499;-78
2023/09/08 02:25:44;;;;;;;9.85;5.00;;;;;;;13.03;100.00;99018.31;4916204;29;20032;-78
2023/09/08 02:28:09;;;;;;;12.18;5.20;;;;;;;12.77;100.00;98981.19;4917227;29;20156;-78
2023/09/08 02:30:35;;;;;;;8.48;5.22;;;;;;;13.03;100.00;99022.91;4921967;29;21600;-77
2023/09/08 02:33:02;;;;;;;10.52;5.20;;;;;;;13.01;100.00;99030.44;4918104;29;20051;-78
2023/09/08 02:35:28;;;;;;;7.55;5.30;;;;;;;12.90;100.00;98997.44;4926953;29;20087;-78
2023/09/08 02:37:53;;;;;;;7.25;4.72;;;;;;;13.00;100.00;99007.03;4931062;29;20059;-79
2023/09/08 02:40:20;;;;;;;10.63;5.30;;;;;;;13.06;100.00;99015.16;4934500;29;20032;-78
2023/09/08 02:42:46;;;;;;;7.05;5.32;;;;;;;13.10;100.00;99019.13;4934883;29;20035;-78
2023/09/08 02:45:11;;;;;;;8.65;5.47;;;;;;;13.01;100.00;99000.56;4925969;29;20020;-78
2023/09/08 02:47:36;;;;;;;9.27;5.38;;;;;;;12.94;100.00;98998.69;4916623;29;20073;-78
2023/09/08 02:50:04;;;;;;;7.68;5.55;;;;;;;12.91;100.00;98985.53;4917461;29;20032;-78
2023/09/08 02:52:30;;;;;;;9.02;5.60;;;;;;;13.05;100.00;99018.09;4930790;29;20035;-77
2023/09/08 02:54:55;;;;;;;8.70;5.82;;;;;;;13.13;100.00;99026.00;4917566;29;20028;-78
2023/09/08 02:57:20;;;;;;;9.63;5.10;;;;;;;12.93;100.00;98978.00;4914507;29;20048;-78
2023/09/08 02:59:51;;;;;;;13.02;5.57;;;;;;;12.98;100.00;99009.13;4917429;29;20106;-77
2023/09/08 03:02:16;;;;;;;9.02;5.20;;;;;;;12.82;100.00;98992.25;4917480;29;20047;-77
2023/09/08 03:04:41;;;;;;;7.78;4.85;;;;;;;12.89;100.00;99006.66;4921362;29;20464;-78
2023/09/08 03:07:07;;;;;;;7.50;4.95;;;;;;;12.78;100.00;99001.03;4927789;28;20038;-78
2023/09/08 03:09:33;;;;;;;7.47;5.20;;;;;;;12.83;100.00;98999.34;4932506;29;20031;-78
2023/09/08 03:11:59;;;;;;;9.63;5.75;;;;;;;12.78;100.00;98977.44;4948648;29;20036;-77
2023/09/08 03:14:24;;;;;;;9.63;6.20;;;;;;;12.93;100.00;99007.88;4909319;29;20127;-78
2023/09/08 03:16:49;;;;;;;8.88;5.28;;;;;;;12.73;100.00;98996.22;4916163;29;20543;-78
2023/09/08 03:19:15;;;;;;;10.20;4.97;;;;;;;12.67;100.00;99005.22;4923562;29;20059;-77
2023/09/08 03:21:40;;;;;;;9.05;4.75;;;;;;;12.52;100.00;98991.06;4937894;29;20043;-78
2023/09/08 03:24:05;;;;;;;8.00;4.85;;;;;;;12.64;100.00;99016.53;4917461;29;20023;-78
2023/09/08 03:26:31;;;;;;;7.95;4.72;;;;;;;12.37;100.00;98980.47;4932948;29;20028;-78
2023/09/08 03:28:56;;;;;;;7.13;4.88;;;;;;;12.50;100.00;98994.00;4916740;29;20042;-78
2023/09/08 03:31:21;;;;;;;10.73;5.00;;;;;;;12.44;100.00;98989.41;4933962;29;20036;-78
2023/09/08 03:33:47;;;;;;;7.78;4.93;;;;;;;12.44;100.00;98987.53;4916998;29;20187;-78
2023/09/08 03:36:12;;;;;;;11.40;5.10;;;;;;;12.55;100.00;99005.06;4914717;29;20043;-78
2023/09/08 03:38:37;;;;;;;7.07;5.15;;;;;;;12.58;100.00;99004.63;4916851;29;20031;-78
2023/09/08 03:41:03;;;;;;;8.18;4.50;;;;;;;12.59;100.00;98991.88;4931537;29;20078;-78
2023/09/08 03:43:28;;;;;;;10.50;4.72;;;;;;;12.63;100.00;98987.72;4929782;29;20047;-78
2023/09/08 03:45:54;;;;;;;6.65;4.55;;;;;;;12.63;100.00;98991.25;4917372;29;20060;-78
2023/09/08 03:48:19;;;;;;;6.35;4.90;;;;;;;12.29;100.00;98957.09;4915634;29;20063;-78
2023/09/08 03:50:45;;;;;;;7.80;4.85;;;;;;;12.33;100.00;98985.44;4932077;29;20020;-78
2023/09/08 03:53:11;;;;;;;7.25;4.45;;;;;;;12.24;100.00;98970.44;4933682;29;20492;-77
2023/09/08 03:55:36;;;;;;;8.98;4.82;;;;;;;12.44;100.00;98990.25;4920463;29;20023;-78
2023/09/08 03:58:02;;;;;;;11.18;4.70;;;;;;;12.51;100.00;98995.66;4915998;29;20164;-78
2023/09/08 04:00:27;;;;;;;7.63;4.13;;;;;;;12.40;100.00;98997.13;4938246;29;20027;-77
2023/09/08 04:02:52;;;;;;;8.38;4.43;;;;;;;12.30;100.00;98985.88;4937538;29;20031;-77
2023/09/08 04:05:18;;;;;;;7.32;4.95;;;;;;;12.40;100.00;98983.56;4924485;29;20369;-77
2023/09/08 04:07:46;;;;;;;8.05;4.57;;;;;;;12.19;100.00;98959.41;4928731;29;20028;-77
2023/09/08 04:10:12;;;;;;;6.93;4.90;;;;;;;12.49;100.00;99009.44;4919484;29;20023;-77
2023/09/08 04:12:42;;;;;;;7.15;4.90;;;;;;;12.33;100.00;99003.63;4920106;29;20369;-77
2023/09/08 04:15:08;;;;;;;6.30;4.88;;;;;;;12.27;100.00;98994.44;4912371;29;20391;-77
2023/09/08 04:17:33;;;;;;;9.13;6.03;;;;;;;12.28;100.00;99006.94;4916502;29;20036;-78
2023/09/08 04:19:59;;;;;;;10.27;6.07;;;;;;;12.39;100.00;99029.91;4937511;29;20083;-77
2023/09/08 04:22:24;;;;;;;12.52;5.47;;;;;;;12.39;100.00;99017.19;4919121;29;20038;-77
2023/09/08 04:24:49;;;;;;;10.90;5.88;;;;;;;12.40;100.00;99029.69;4920519;29;20027;-77
2023/09/08 04:27:15;;;;;;;8.85;5.85;;;;;;;12.35;100.00;99032.22;4920766;29;20030;-80
2023/09/08 04:29:40;;;;;;;10.75;5.90;;;;;;;12.33;100.00;99034.28;4934924;29;20079;-78
2023/09/08 04:32:08;;;;;;;10.52;6.80;;;;;;;12.12;100.00;99010.91;4938776;29;20043;-78
2023/09/08 04:34:40;;;;;;;10.05;6.50;;;;;;;12.28;100.00;99020.50;4922922;29;20349;-79
2023/09/08 04:37:06;;;;;;;9.90;6.22;;;;;;;12.19;100.00;99009.03;4919994;29;20031;-78
2023/09/08 04:39:32;;;;;;;10.07;6.03;;;;;;;12.22;100.00;99016.75;4940181;29;20035;-79
2023/09/08 04:41:58;;;;;;;9.40;5.55;;;;;;;12.24;100.00;99030.13;4927612;29;20131;-79
2023/09/08 04:44:23;;;;;;;8.00;5.85;;;;;;;12.06;100.00;99011.75;4940264;29;20051;-73
2023/09/08 04:46:48;;;;;;;8.40;5.65;;;;;;;12.07;100.00;99018.84;4930118;29;20510;-72
2023/09/08 04:49:14;;;;;;;15.32;6.55;;;;;;;12.13;100.00;99041.56;4914868;29;20071;-75
2023/09/08 04:51:39;;;;;;;8.10;5.38;;;;;;;12.06;100.00;99042.41;4931137;29;20038;-73
2023/09/08 04:54:05;;;;;;;7.65;5.07;;;;;;;12.16;100.00;99044.72;4919306;29;20115;-73
2023/09/08 04:56:30;;;;;;;10.63;5.07;;;;;;;12.07;100.00;99024.25;4934989;29;20035;-73
2023/09/08 04:58:55;;;;;;;8.05;5.20;;;;;;;12.25;100.00;99038.03;4936151;29;20043;-73
2023/09/08 05:01:21;;;;;;;15.73;5.13;;;;;;;12.22;100.00;99029.50;4934642;29;20027;-73
2023/09/08 05:03:46;;;;;;;17.38;5.35;;;;;;;12.37;100.00;99046.41;4934508;29;20031;-72
2023/09/08 05:06:13;;;;;;;7.95;4.63;;;;;;;12.35;100.00;99032.22;4933272;29;20036;-73
2023/09/08 05:08:39;;;;;;;9.90;4.95;;;;;;;12.34;100.00;99019.69;4918594;29;20024;-73
2023/09/08 05:11:04;;;;;;;12.98;5.43;;;;;;;12.43;100.00;99031.16;4920848;29;20023;-73
2023/09/08 05:13:30;;;;;;;9.10;4.57;;;;;;;12.50;100.00;99023.84;4933447;29;20361;-75
2023/09/08 05:15:59;;;;;;;8.75;5.13;;;;;;;12.64;100.00;99038.25;4934912;29;20185;-71
2023/09/08 05:18:26;;;;;;;8.02;4.72;;;;;;;12.66;100.00;99022.56;4929860;29;20032;-75
2023/09/08 05:20:52;;;;;;;6.45;4.55;;;;;;;12.83;100.00;99040.06;4916924;29;20066;-73
2023/09/08 05:23:18;;;;;;;7.95;5.45;;;;;;;12.84;100.00;99028.19;4917989;29;20039;-74
2023/09/08 05:25:44;;;;;;;8.35;4.85;;;;;;;12.97;100.00;99031.88;4935578;29;20114;-73
2023/09/08 05:28:10;;;;;;;9.65;5.07;;;;;;;13.04;100.00;99030.00;4933529;29;20043;-74
2023/09/08 05:30:35;;;;;;;12.00;5.05;;;;;;;13.50;100.00;99018.16;4934906;29;20612;-75
2023/09/08 05:33:01;;;;;;;8.48;4.40;;;;;;;15.76;100.00;99002.38;4935529;29;20028;-75
2023/09/08 05:35:26;;;;;;;9.95;4.82;;;;;;;18.17;100.00;98984.66;4917368;29;20110;-75
2023/09/08 05:37:52;;;;;;;7.63;3.78;;;;;;;20.05;100.00;98975.63;4932950;29;20023;-76
2023/09/08 05:40:18;;;;;;;8.95;3.92;;;;;;;20.76;100.00;98940.41;4931612;29;20043;-76
2023/09/08 05:42:44;;;;;;;7.68;4.03;;;;;;;21.44;100.00;98964.41;4931954;29;20031;-72
2023/09/08 05:45:09;;;;;;;5.63;3.40;;;;;;;22.81;100.00;98962.81;4950699;29;20516;-75
2023/09/08 05:47:35;;;;;;;8.65;3.95;;;;;;;23.42;100.00;98964.53;4934648;29;20048;-75
2023/09/08 05:50:01;;;;;;;16.48;4.18;;;;;;;24.30;93.14;98986.94;4953096;28;20120;-76
2023/09/08 05:52:28;;;;;;;15.98;3.72;;;;;;;25.22;84.27;98992.44;4937493;29;20054;-72
2023/09/08 05:54:53;;;;;;;8.93;4.25;;;;;;;25.73;76.34;98980.69;4921682;29;20031;-76
2023/09/08 05:57:19;;;;;;;12.73;4.53;;;;;;;26.52;71.78;98995.88;4937773;28;20034;-75
2023/09/08 05:59:44;;;;;;;11.15;4.18;;;;;;;26.02;73.63;98986.09;4920778;29;20042;-74
2023/09/08 06:02:09;;;;;;;7.78;3.85;;;;;;;26.62;72.41;98976.28;4940965;29;20027;-75
2023/09/08 06:04:35;;;;;;;10.32;3.83;;;;;;;27.11;69.86;98981.16;4941756;29;20075;-74
2023/09/08 06:07:00;;;;;;;10.57;4.53;;;;;;;28.96;61.94;98971.31;4937855;29;20015;-75
2023/09/08 06:09:25;;;;;;;13.20;5.00;;;;;;;30.76;55.72;98965.44;4938810;29;20028;-75
2023/09/08 06:11:51;;;;;;;9.50;3.85;;;;;;;30.23;56.50;98983.44;4937705;29;20145;-75
2023/09/08 06:14:16;;;;;;;15.50;3.78;;;;;;;30.60;55.05;98971.88;4935169;29;20055;-76
2023/09/08 06:16:41;;;;;;;64.65;10.20;;;;;;;30.39;55.50;98985.72;4947148;28;20023;-76
2023/09/08 06:19:07;;;;;;;50.80;6.22;;;;;;;31.28;54.94;98985.97;4933073;29;20023;-75
2023/09/08 06:21:32;;;;;;;10.70;4.38;;;;;;;32.00;51.60;98970.09;4937554;29;20530;-74
2023/09/08 06:23:57;;;;;;;6.30;3.88;;;;;;;32.57;49.82;98986.22;4934038;29;20140;-75
2023/09/08 06:26:23;;;;;;;8.70;3.90;;;;;;;32.83;48.87;98980.34;4931165;29;20037;-75
2023/09/08 06:28:48;;;;;;;6.28;3.83;;;;;;;34.10;46.75;98984.06;4932070;29;20031;-72
2023/09/08 06:31:14;;;;;;;6.80;3.63;;;;;;;34.47;44.72;98964.25;4934718;29;20027;-73
2023/09/08 06:33:40;;;;;;;7.32;3.72;;;;;;;34.14;45.63;98973.78;4917938;29;20031;-73
2023/09/08 06:36:06;;;;;;;8.43;3.47;;;;;;;35.22;43.80;98971.91;4932639;29;20039;-75
2023/09/08 06:38:32;;;;;;;5.38;3.80;;;;;;;35.55;43.20;98974.31;4930317;29;20023;-76
2023/09/08 06:40:57;;;;;;;5.50;3.63;;;;;;;36.59;41.97;98970.13;4917544;29;20039;-74
2023/09/08 06:43:23;;;;;;;5.60;4.18;;;;;;;36.40;42.30;98979.41;4934900;29;20031;-73
2023/09/08 06:45:49;;;;;;;6.28;3.35;;;;;;;36.76;41.64;98983.75;4933716;29;20114;-75
2023/09/08 06:48:14;;;;;;;5.55;3.70;;;;;;;36.57;40.93;98989.41;4934984;29;20075;-74
2023/09/08 06:50:40;;;;;;;6.82;3.42;;;;;;;35.68;42.28;98982.66;4934661;29;20023;-76
2023/09/08 06:53:05;;;;;;;7.35;3.55;;;;;;;34.06;44.03;98971.94;4934524;29;20028;-74
2023/09/08 06:55:30;;;;;;;4.57;3.53;;;;;;;34.63;43.98;98981.16;4934328;29;20024;-75
2023/09/08 06:57:57;;;;;;;8.15;3.60;;;;;;;35.34;44.07;98983.06;4916812;29;20031;-74
2023/09/08 07:00:22;;;;;;;3.70;3.10;;;;;;;34.59;44.36;98989.50;4917024;29;20115;-75
2023/09/08 07:02:49;;;;;;;8.57;3.88;;;;;;;34.47;44.50;98978.31;4934403;29;20071;-73
2023/09/08 07:05:15;;;;;;;8.10;3.67;;;;;;;33.82;45.72;98984.84;4917285;29;20157;-75
2023/09/08 07:07:40;;;;;;;6.53;3.33;;;;;;;35.83;43.30;98983.81;4914545;29;20490;-74
2023/09/08 07:10:06;;;;;;;7.40;3.58;;;;;;;35.52;43.29;99000.34;4917111;29;20046;-73
2023/09/08 07:12:32;;;;;;;4.22;3.35;;;;;;;35.75;43.36;98988.44;4934403;29;20439;-73
2023/09/08 07:14:57;;;;;;;7.65;3.80;;;;;;;36.01;42.93;98985.00;4934157;29;20460;-73
2023/09/08 07:17:25;;;;;;;4.80;3.30;;;;;;;36.11;42.10;98983.66;4915806;29;20058;-74
2023/09/08 07:19:51;;;;;;;6.38;3.60;;;;;;;37.97;40.20;98986.97;4934462;29;20410;-73
2023/09/08 07:22:17;;;;;;;4.75;3.50;;;;;;;39.07;38.10;98980.19;4933779;29;20031;-76
2023/09/08 07:24:42;;;;;;;5.35;3.83;;;;;;;37.47;38.38;98992.66;4917659;29;20131;-74
2023/09/08 07:27:08;;;;;;;7.25;3.90;;;;;;;39.27;37.57;98986.41;4933637;29;20487;-74
2023/09/08 07:29:33;;;;;;;9.48;3.92;;;;;;;38.69;37.46;98982.22;4937625;29;20576;-74
2023/09/08 07:31:58;;;;;;;6.23;4.13;;;;;;;38.10;38.71;98988.38;4938953;29;20042;-74
2023/09/08 07:34:24;;;;;;;9.35;4.10;;;;;;;40.09;36.69;98965.13;4923279;29;20329;-74
2023/09/08 07:36:49;;;;;;;8.73;3.80;;;;;;;40.53;36.64;98975.44;4935610;29;20392;-74
2023/09/08 07:39:14;;;;;;;10.02;3.13;;;;;;;40.90;35.39;98979.16;4935325;29;20023;-73
2023/09/08 07:41:40;;;;;;;6.83;3.33;;;;;;;41.37;35.03;98988.53;4919410;29;20028;-74
2023/09/08 07:44:06;;;;;;;8.02;4.15;;;;;;;42.74;33.73;98971.91;4933505;29;20291;-73
2023/09/08 07:46:32;;;;;;;5.60;3.90;;;;;;;40.99;35.55;98982.44;4936607;29;20023;-75
2023/09/08 07:48:58;;;;;;;5.90;3.67;;;;;;;40.58;35.58;98984.75;4939274;29;20054;-74
2023/09/08 07:51:24;;;;;;;11.48;3.90;;;;;;;40.28;35.56;98985.91;4934783;29;20429;-74
2023/09/08 07:53:49;;;;;;;6.43;3.88;;;;;;;39.42;36.28;98963.50;4934570;29;20031;-75
2023/09/08 07:56:15;;;;;;;5.85;3.33;;;;;;;39.54;36.60;98987.88;4926808;29;20027;-76
2023/09/08 07:58:40;;;;;;;5.63;3.47;;;;;;;39.96;36.21;98980.06;4942050;29;20032;-76
2023/09/08 08:01:05;;;;;;;7.23;3.23;;;;;;;40.14;36.09;98980.97;4932268;29;20020;-75
2023/09/08 08:03:30;;;;;;;4.03;3.10;;;;;;;40.03;35.94;98975.22;4928141;29;20037;-76
2023/09/08 08:05:57;;;;;;;8.40;3.38;;;;;;;40.46;35.85;98983.13;4915107;29;20051;-75
2023/09/08 08:08:22;;;;;;;3.65;3.00;;;;;;;40.04;36.22;98978.88;4934704;29;20376;-77
2023/09/08 08:10:48;;;;;;;6.20;2.93;;;;;;;40.95;35.34;98967.41;4916529;29;20035;-75
2023/09/08 08:13:13;;;;;;;4.03;2.83;;;;;;;41.70;34.89;98970.28;4933574;29;20023;-76
2023/09/08 08:15:40;;;;;;;4.80;2.77;;;;;;;40.99;36.23;98962.56;4940563;28;20032;-78
2023/09/08 08:18:07;;;;;;;6.13;2.88;;;;;;;42.29;34.71;98961.16;4922226;29;20027;-78
2023/09/08 08:20:35;;;;;;;3.88;2.90;;;;;;;39.69;35.83;98949.09;4920681;29;20130;-76
2023/09/08 08:23:04;;;;;;;8.00;2.67;;;;;;;41.30;34.83;98972.34;4917273;29;20078;-77
2023/09/08 08:25:30;;;;;;;4.10;2.92;;;;;;;41.30;34.33;98978.00;4921838;29;20499;-74
2023/09/08 08:27:59;;;;;;;4.68;3.10;;;;;;;40.40;35.00;98965.66;4941208;28;20036;-77
2023/09/08 08:30:25;;;;;;;7.75;3.60;;;;;;;40.56;34.80;98939.81;4919710;29;20031;-76
2023/09/08 08:32:51;;;;;;;5.82;3.80;;;;;;;39.08;35.94;98945.03;4931896;29;20047;-76
2023/09/08 08:35:17;;;;;;;9.70;4.70;;;;;;;38.45;36.96;98960.94;4919178;29;20024;-75
2023/09/08 08:37:42;;;;;;;12.20;4.63;;;;;;;40.51;34.88;98955.19;4934056;29;20111;-75
2023/09/08 08:40:11;;;;;;;5.82;4.07;;;;;;;41.09;34.71;98967.47;4918867;29;20126;-72
2023/09/08 08:42:37;;;;;;;7.00;3.53;;;;;;;40.70;35.00;98967.41;4931384;29;20028;-73
2023/09/08 08:45:03;;;;;;;5.90;3.67;;;;;;;41.23;35.34;98972.31;4925780;29;20107;-71
2023/09/08 08:47:29;;;;;;;4.75;3.53;;;;;;;42.26;33.20;98961.97;4921771;29;20015;-78
2023/09/08 08:49:58;;;;;;;6.00;3.10;;;;;;;42.86;32.61;98966.53;4937968;29;20082;-73
2023/09/08 08:52:24;;;;;;;4.00;2.80;;;;;;;43.46;31.41;98964.44;4917332;29;20031;-73
2023/09/08 08:54:49;;;;;;;5.25;2.92;;;;;;;41.06;33.24;98962.56;4935521;29;20024;-72
2023/09/08 08:57:15;;;;;;;7.57;3.00;;;;;;;40.67;33.65;98960.50;4938192;28;20082;-73
2023/09/08 08:59:43;;;;;;;3.72;2.95;;;;;;;40.65;33.74;98965.78;4935032;29;20027;-73
2023/09/08 09:02:11;;;;;;;6.68;2.95;;;;;;;41.17;33.64;98960.56;4941290;28;20039;-78
2023/09/08 09:04:37;;;;;;;3.40;2.63;;;;;;;41.48;34.09;98966.63;4922324;29;20071;-76
2023/09/08 09:07:03;;;;;;;3.97;2.60;;;;;;;41.39;33.46;98958.50;4931354;29;20027;-76
2023/09/08 09:09:29;;;;;;;4.10;2.75;;;;;;;42.49;32.63;98960.66;4935614;29;20028;-77
2023/09/08 09:11:54;;;;;;;3.65;2.75;;;;;;;41.62;33.06;98965.03;4938858;29;20031;-77
2023/09/08 09:14:20;;;;;;;5.15;2.95;;;;;;;39.57;35.17;98941.75;4929088;29;20039;-76
2023/09/08 09:16:47;;;;;;;6.47;3.35;;;;;;;41.77;32.97;98944.69;4932580;29;20036;-74
2023/09/08 09:19:31;;;;;;;4.15;2.63;;;;;;;41.11;34.18;98953.69;4919046;29;20031;-74
2023/09/08 09:21:57;;;;;;;4.75;2.65;;;;;;;39.68;35.30;98947.50;4928782;29;20031;-74
2023/09/08 09:24:43;;;;;;;3.60;2.80;;;;;;;41.75;33.85;98949.16;4935165;29;20028;-74
2023/09/08 09:27:10;;;;;;;7.07;2.75;;;;;;;41.80;33.52;98960.09;4935330;29;20488;-74
2023/09/08 09:29:46;;;;;;;9.15;3.08;;;;;;;39.73;35.55;98969.78;4918779;29;20023;-73
2023/09/08 09:32:12;;;;;;;4.75;3.28;;;;;;;40.73;35.52;98956.06;4930394;29;20462;-74
2023/09/08 09:34:49;;;;;;;5.45;2.75;;;;;;;42.44;34.66;98959.88;4924774;29;20062;-73
2023/09/08 09:37:14;;;;;;;4.80;3.10;;;;;;;42.86;32.85;98954.34;4934244;29;20035;-74
2023/09/08 09:39:39;;;;;;;3.60;2.92;;;;;;;43.95;33.00;98952.94;4934455;29;20027;-73
2023/09/08 09:42:05;;;;;;;5.00;2.90;;;;;;;44.49;32.13;98955.13;4929766;29;20107;-74
2023/09/08 09:44:30;;;;;;;7.75;2.83;;;;;;;43.85;31.57;98936.78;4934240;29;20283;-74
2023/09/08 09:46:56;;;;;;;7.18;2.70;;;;;;;43.06;33.03;98944.03;4934897;29;20082;-74
2023/09/08 09:49:21;;;;;;;3.90;2.85;;;;;;;42.82;32.63;98919.44;4933264;29;20464;-75
2023/09/08 09:51:49;;;;;;;6.20;2.75;;;;;;;44.33;31.38;98947.19;4930320;29;20380;-75
2023/09/08 09:54:15;;;;;;;4.05;3.05;;;;;;;42.54;32.84;98954.53;4915052;29;20031;-75
2023/09/08 09:56:41;;;;;;;3.92;2.92;;;;;;;41.99;34.51;98951.13;4935599;29;20094;-75
2023/09/08 09:59:12;;;;;;;5.90;2.60;;;;;;;43.33;33.30;98947.06;4934510;29;20028;-75
2023/09/08 10:01:38;;;;;;;2.80;2.33;;;;;;;44.34;31.91;98938.19;4929954;29;20032;-76
2023/09/08 10:04:04;;;;;;;6.07;2.67;;;;;;;42.36;33.02;98934.72;4934990;29;20102;-76
2023/09/08 10:06:35;;;;;;;4.72;2.47;;;;;;;43.52;32.63;98939.13;4932632;29;20031;-74
2023/09/08 10:09:04;;;;;;;6.63;3.50;;;;;;;43.74;31.92;98936.91;4933640;29;20108;-75
2023/09/08 10:11:39;;;;;;;7.40;3.08;;;;;;;42.02;33.06;98929.59;4912374;29;20066;-76
2023/09/08 10:14:10;;;;;;;3.28;2.58;;;;;;;44.04;31.90;98933.28;4932365;29;20028;-76
2023/09/08 10:16:38;;;;;;;3.85;2.70;;;;;;;45.16;31.65;98926.81;4933665;29;20617;-76
2023/09/08 10:19:10;;;;;;;4.80;2.80;;;;;;;46.64;30.67;98932.00;4938853;29;20039;-75
2023/09/08 10:21:41;;;;;;;3.95;2.42;;;;;;;46.66;29.95;98926.63;4910999;29;20492;-75
2023/09/08 10:24:28;;;;;;;5.72;2.70;;;;;;;47.26;29.69;98928.47;4934055;29;20042;-75
2023/09/08 10:27:12;;;;;;;5.07;2.47;;;;;;;45.42;31.24;98925.09;4938669;28;20024;-74
2023/09/08 10:29:38;;;;;;;6.28;2.70;;;;;;;43.50;32.28;98921.69;4934736;29;20030;-75
2023/09/08 10:32:05;;;;;;;4.72;2.20;;;;;;;44.54;32.42;98912.69;4934006;29;20024;-75
2023/09/08 10:34:32;;;;;;;3.95;2.63;;;;;;;45.05;30.75;98910.63;4935854;29;20647;-74
2023/09/08 10:36:58;;;;;;;4.53;2.50;;;;;;;44.38;31.23;98901.88;4933011;29;20074;-74
2023/09/08 10:39:41;;;;;;;4.55;2.88;;;;;;;42.99;32.80;98915.59;4941619;29;22134;-75
2023/09/08 10:42:19;;;;;;;3.72;2.72;;;;;;;44.56;32.73;98907.31;4938801;29;20062;-75
2023/09/08 10:44:47;;;;;;;6.90;2.55;;;;;;;45.10;32.07;98914.25;4938268;29;20026;-74
2023/09/08 10:47:12;;;;;;;3.92;2.58;;;;;;;46.96;30.03;98904.66;4934032;29;20028;-74
2023/09/08 10:49:38;;;;;;;4.40;2.50;;;;;;;47.12;30.54;98904.66;4934271;29;20034;-75
2023/09/08 10:52:12;;;;;;;4.07;2.30;;;;;;;47.33;30.16;98906.16;4920021;29;20024;-75
2023/09/08 10:54:44;;;;;;;5.97;3.10;;;;;;;46.26;30.52;98903.81;4928934;29;20048;-75
2023/09/08 10:57:17;;;;;;;5.20;2.50;;;;;;;45.14;31.05;98912.91;4934586;29;20031;-75
2023/09/08 10:59:51;;;;;;;6.68;2.58;;;;;;;45.05;31.32;98899.22;4932880;29;20031;-74
2023/09/08 11:02:41;;;;;;;2.97;2.33;;;;;;;47.11;30.05;98899.38;4919876;29;20488;-75
2023/09/08 11:05:13;;;;;;;3.70;2.60;;;;;;;45.72;29.76;98901.25;4937979;29;20035;-75
2023/09/08 11:07:40;;;;;;;5.72;2.70;;;;;;;47.16;29.38;98899.66;4918942;29;20031;-75
2023/09/08 11:10:06;;;;;;;;;;;;;;;45.06;30.38;98906.53;4938656;29;20106;-75
2023/09/08 11:12:31;;;;;;;8.88;2.65;;;;;;;46.17;30.72;98905.66;4938317;29;19938;-75
2023/09/08 11:15:00;;;;;;;2.85;2.20;;;;;;;47.29;29.67;98901.75;4939416;29;20034;-75
2023/09/08 11:17:27;;;;;;;7.15;2.40;;;;;;;46.23;30.40;98907.56;4934770;29;20027;-76
2023/09/08 11:19:53;;;;;;;4.68;2.63;;;;;;;46.09;29.46;98902.97;4918598;29;20036;-77
2023/09/08 11:22:23;;;;;;;4.70;2.45;;;;;;;46.36;29.80;98887.69;4928671;29;20165;-76
2023/09/08 11:24:49;;;;;;;3.30;2.20;;;;;;;46.63;29.99;98896.03;4920626;29;20019;-75
2023/09/08 11:27:14;;;;;;;4.90;2.90;;;;;;;42.21;32.36;98900.69;4942165;28;20177;-75